Chaumont-Gistoux, Belgium
Current Conditions -  °F | °C
As of 4:25 AM on Wednesday 22 Oct 2014 (Local Time) from EBBE Reporting Station
Broken Clouds Broken Clouds  
Wind Chill: 42°   Ceiling: 5500
Heat Index: 46°   Visibility: 6mi
Dew Point: 39°   Wind: 9mph
Humidity: 76%   Direction: 280°W
Pressure: 30.03"   Gusts: NA
Location:  50.68°N, 4.72°E
Report Text: EBBE 220225Z AUTO 28008KT 9999 FEW027/// SCT032/// BKN055/// 08/04 Q1017 BLU
Loading
Personal Weather Stations






























Interactive Weather Map
Tropical Storm Tracking
New forecast layout! Learn more

10-Day Weather Forecast

Advertisements
Track Severe Weather on mobile